sensor_id;sensor_type;location;lat;lon;timestamp;P1;durP1;ratioP1;P2;durP2;ratioP2
24008;SDS011;12217;50.792;4.372;2022-09-20T00:01:22;3.25;;;1.20;;
24008;SDS011;12217;50.792;4.372;2022-09-20T00:03:50;4.18;;;1.30;;
24008;SDS011;12217;50.792;4.372;2022-09-20T00:06:19;3.22;;;1.40;;
24008;SDS011;12217;50.792;4.372;2022-09-20T00:08:46;4.65;;;1.40;;
24008;SDS011;12217;50.792;4.372;2022-09-20T00:11:14;4.53;;;1.42;;
24008;SDS011;12217;50.792;4.372;2022-09-20T00:13:48;4.75;;;1.63;;
24008;SDS011;12217;50.792;4.372;2022-09-20T00:16:17;5.43;;;1.75;;
24008;SDS011;12217;50.792;4.372;2022-09-20T00:18:48;5.10;;;1.73;;
24008;SDS011;12217;50.792;4.372;2022-09-20T00:21:16;5.22;;;1.70;;
24008;SDS011;12217;50.792;4.372;2022-09-20T00:23:43;3.67;;;1.50;;
24008;SDS011;12217;50.792;4.372;2022-09-20T00:26:09;2.72;;;1.60;;
24008;SDS011;12217;50.792;4.372;2022-09-20T00:28:35;3.38;;;1.60;;
24008;SDS011;12217;50.792;4.372;2022-09-20T00:31:01;3.90;;;1.70;;
24008;SDS011;12217;50.792;4.372;2022-09-20T00:33:27;2.70;;;1.50;;
24008;SDS011;12217;50.792;4.372;2022-09-20T00:36:12;2.47;;;1.52;;
24008;SDS011;12217;50.792;4.372;2022-09-20T00:38:38;3.25;;;1.45;;
24008;SDS011;12217;50.792;4.372;2022-09-20T00:41:04;3.88;;;1.88;;
24008;SDS011;12217;50.792;4.372;2022-09-20T00:43:41;2.85;;;1.60;;
24008;SDS011;12217;50.792;4.372;2022-09-20T00:49:02;4.95;;;1.63;;
24008;SDS011;12217;50.792;4.372;2022-09-20T00:51:36;3.75;;;1.80;;
24008;SDS011;12217;50.792;4.372;2022-09-20T00:54:05;3.85;;;1.75;;
24008;SDS011;12217;50.792;4.372;2022-09-20T00:56:35;4.78;;;1.90;;
24008;SDS011;12217;50.792;4.372;2022-09-20T01:01:42;6.03;;;2.10;;
24008;SDS011;12217;50.792;4.372;2022-09-20T01:04:10;3.95;;;1.60;;
24008;SDS011;12217;50.792;4.372;2022-09-20T01:06:38;3.35;;;1.50;;
24008;SDS011;12217;50.792;4.372;2022-09-20T01:09:07;3.35;;;1.55;;
24008;SDS011;12217;50.792;4.372;2022-09-20T01:11:33;2.55;;;1.50;;
24008;SDS011;12217;50.792;4.372;2022-09-20T01:13:59;3.83;;;1.65;;
24008;SDS011;12217;50.792;4.372;2022-09-20T01:16:25;3.10;;;1.30;;
24008;SDS011;12217;50.792;4.372;2022-09-20T01:18:54;3.17;;;1.58;;
24008;SDS011;12217;50.792;4.372;2022-09-20T01:21:22;3.53;;;1.50;;
24008;SDS011;12217;50.792;4.372;2022-09-20T01:24:03;4.65;;;1.80;;
24008;SDS011;12217;50.792;4.372;2022-09-20T01:26:57;3.60;;;1.70;;
24008;SDS011;12217;50.792;4.372;2022-09-20T01:32:43;5.47;;;2.00;;
24008;SDS011;12217;50.792;4.372;2022-09-20T01:35:09;2.92;;;2.03;;
24008;SDS011;12217;50.792;4.372;2022-09-20T01:37:49;3.78;;;2.10;;
24008;SDS011;12217;50.792;4.372;2022-09-20T01:43:15;6.32;;;2.38;;
24008;SDS011;12217;50.792;4.372;2022-09-20T01:46:47;6.47;;;2.53;;
24008;SDS011;12217;50.792;4.372;2022-09-20T01:54:43;4.20;;;2.85;;
24008;SDS011;12217;50.792;4.372;2022-09-20T02:00:11;4.68;;;2.78;;
24008;SDS011;12217;50.792;4.372;2022-09-20T02:06:15;5.93;;;2.42;;
24008;SDS011;12217;50.792;4.372;2022-09-20T02:11:58;6.47;;;2.47;;
24008;SDS011;12217;50.792;4.372;2022-09-20T02:14:52;4.55;;;2.38;;
24008;SDS011;12217;50.792;4.372;2022-09-20T02:17:32;4.28;;;2.75;;
24008;SDS011;12217;50.792;4.372;2022-09-20T02:21:03;3.92;;;2.53;;
24008;SDS011;12217;50.792;4.372;2022-09-20T02:25:51;5.40;;;2.85;;
24008;SDS011;12217;50.792;4.372;2022-09-20T02:30:58;3.50;;;2.88;;
24008;SDS011;12217;50.792;4.372;2022-09-20T02:39:34;6.93;;;3.10;;
24008;SDS011;12217;50.792;4.372;2022-09-20T02:45:06;5.18;;;2.80;;
24008;SDS011;12217;50.792;4.372;2022-09-20T02:47:37;4.20;;;2.85;;
24008;SDS011;12217;50.792;4.372;2022-09-20T02:50:13;5.32;;;2.95;;
24008;SDS011;12217;50.792;4.372;2022-09-20T02:52:55;5.60;;;3.00;;
24008;SDS011;12217;50.792;4.372;2022-09-20T02:55:34;5.22;;;3.10;;
24008;SDS011;12217;50.792;4.372;2022-09-20T03:01:01;4.13;;;2.88;;
24008;SDS011;12217;50.792;4.372;2022-09-20T03:09:09;5.22;;;2.85;;
24008;SDS011;12217;50.792;4.372;2022-09-20T03:15:08;3.40;;;3.03;;
24008;SDS011;12217;50.792;4.372;2022-09-20T03:34:07;9.90;;;4.00;;
24008;SDS011;12217;50.792;4.372;2022-09-20T03:42:24;5.03;;;4.20;;
24008;SDS011;12217;50.792;4.372;2022-09-20T03:53:28;5.65;;;4.03;;
24008;SDS011;12217;50.792;4.372;2022-09-20T04:04:27;8.07;;;4.25;;
24008;SDS011;12217;50.792;4.372;2022-09-20T04:18:49;5.30;;;3.55;;
24008;SDS011;12217;50.792;4.372;2022-09-20T04:21:34;7.03;;;3.75;;
24008;SDS011;12217;50.792;4.372;2022-09-20T04:26:51;6.57;;;3.63;;
24008;SDS011;12217;50.792;4.372;2022-09-20T04:29:36;4.35;;;3.10;;
24008;SDS011;12217;50.792;4.372;2022-09-20T04:34:56;8.23;;;3.90;;
24008;SDS011;12217;50.792;4.372;2022-09-20T04:37:48;6.85;;;3.85;;
24008;SDS011;12217;50.792;4.372;2022-09-20T04:40:35;7.03;;;3.63;;
24008;SDS011;12217;50.792;4.372;2022-09-20T04:45:59;7.68;;;4.00;;
24008;SDS011;12217;50.792;4.372;2022-09-20T04:59:37;5.35;;;3.55;;
24008;SDS011;12217;50.792;4.372;2022-09-20T05:24:30;9.30;;;3.55;;
24008;SDS011;12217;50.792;4.372;2022-09-20T05:30:27;5.85;;;3.78;;
24008;SDS011;12217;50.792;4.372;2022-09-20T05:41:27;10.18;;;5.22;;
24008;SDS011;12217;50.792;4.372;2022-09-20T05:44:14;10.15;;;4.75;;
24008;SDS011;12217;50.792;4.372;2022-09-20T05:53:23;9.38;;;4.63;;
24008;SDS011;12217;50.792;4.372;2022-09-20T06:01:41;8.20;;;5.10;;
24008;SDS011;12217;50.792;4.372;2022-09-20T06:04:36;8.02;;;4.85;;
24008;SDS011;12217;50.792;4.372;2022-09-20T06:07:31;8.38;;;5.60;;
24008;SDS011;12217;50.792;4.372;2022-09-20T06:17:48;10.82;;;5.55;;
24008;SDS011;12217;50.792;4.372;2022-09-20T06:22:56;11.82;;;6.70;;
24008;SDS011;12217;50.792;4.372;2022-09-20T06:27:57;11.63;;;6.78;;
24008;SDS011;12217;50.792;4.372;2022-09-20T06:30:41;14.25;;;6.68;;
24008;SDS011;12217;50.792;4.372;2022-09-20T06:35:44;11.82;;;6.90;;
24008;SDS011;12217;50.792;4.372;2022-09-20T06:41:10;21.70;;;8.15;;
24008;SDS011;12217;50.792;4.372;2022-09-20T06:44:01;13.13;;;7.35;;
24008;SDS011;12217;50.792;4.372;2022-09-20T06:46:33;13.75;;;6.90;;
24008;SDS011;12217;50.792;4.372;2022-09-20T06:49:00;13.40;;;7.50;;
24008;SDS011;12217;50.792;4.372;2022-09-20T06:51:27;9.55;;;6.88;;
24008;SDS011;12217;50.792;4.372;2022-09-20T06:53:58;12.82;;;6.82;;
24008;SDS011;12217;50.792;4.372;2022-09-20T06:56:24;12.85;;;7.82;;
24008;SDS011;12217;50.792;4.372;2022-09-20T06:58:52;10.65;;;7.13;;
24008;SDS011;12217;50.792;4.372;2022-09-20T07:01:18;10.75;;;7.13;;
24008;SDS011;12217;50.792;4.372;2022-09-20T07:03:45;10.88;;;7.25;;
24008;SDS011;12217;50.792;4.372;2022-09-20T07:06:11;9.65;;;7.03;;
24008;SDS011;12217;50.792;4.372;2022-09-20T07:08:37;13.55;;;7.28;;
24008;SDS011;12217;50.792;4.372;2022-09-20T07:11:07;15.27;;;7.55;;
24008;SDS011;12217;50.792;4.372;2022-09-20T07:13:35;10.60;;;6.60;;
24008;SDS011;12217;50.792;4.372;2022-09-20T07:16:01;13.05;;;7.05;;
24008;SDS011;12217;50.792;4.372;2022-09-20T07:18:29;11.32;;;7.13;;
24008;SDS011;12217;50.792;4.372;2022-09-20T07:20:56;11.15;;;7.00;;
24008;SDS011;12217;50.792;4.372;2022-09-20T07:23:25;15.88;;;7.22;;
24008;SDS011;12217;50.792;4.372;2022-09-20T07:25:51;13.55;;;6.70;;
24008;SDS011;12217;50.792;4.372;2022-09-20T07:28:17;10.20;;;6.60;;
24008;SDS011;12217;50.792;4.372;2022-09-20T07:30:46;16.05;;;7.50;;
24008;SDS011;12217;50.792;4.372;2022-09-20T07:33:12;12.05;;;6.60;;
24008;SDS011;12217;50.792;4.372;2022-09-20T07:35:43;10.45;;;6.80;;
24008;SDS011;12217;50.792;4.372;2022-09-20T07:38:10;14.20;;;6.85;;
24008;SDS011;12217;50.792;4.372;2022-09-20T07:40:37;9.43;;;6.80;;
24008;SDS011;12217;50.792;4.372;2022-09-20T07:43:02;13.27;;;6.85;;
24008;SDS011;12217;50.792;4.372;2022-09-20T07:45:28;13.00;;;7.22;;
24008;SDS011;12217;50.792;4.372;2022-09-20T07:47:58;14.02;;;7.03;;
24008;SDS011;12217;50.792;4.372;2022-09-20T07:50:26;9.95;;;6.43;;
24008;SDS011;12217;50.792;4.372;2022-09-20T07:52:54;11.18;;;6.18;;
24008;SDS011;12217;50.792;4.372;2022-09-20T07:55:21;13.30;;;6.90;;
24008;SDS011;12217;50.792;4.372;2022-09-20T07:57:47;15.07;;;6.75;;
24008;SDS011;12217;50.792;4.372;2022-09-20T08:00:12;11.52;;;6.88;;
24008;SDS011;12217;50.792;4.372;2022-09-20T08:02:38;14.55;;;6.40;;
24008;SDS011;12217;50.792;4.372;2022-09-20T08:05:04;10.20;;;6.93;;
24008;SDS011;12217;50.792;4.372;2022-09-20T08:07:30;9.68;;;5.82;;
24008;SDS011;12217;50.792;4.372;2022-09-20T08:09:56;11.60;;;5.97;;
24008;SDS011;12217;50.792;4.372;2022-09-20T08:12:22;9.40;;;5.93;;
24008;SDS011;12217;50.792;4.372;2022-09-20T08:14:48;12.15;;;6.28;;
24008;SDS011;12217;50.792;4.372;2022-09-20T08:17:13;12.98;;;6.20;;
24008;SDS011;12217;50.792;4.372;2022-09-20T08:19:39;7.35;;;5.47;;
24008;SDS011;12217;50.792;4.372;2022-09-20T08:22:07;12.70;;;5.82;;
24008;SDS011;12217;50.792;4.372;2022-09-20T08:24:34;13.48;;;6.68;;
24008;SDS011;12217;50.792;4.372;2022-09-20T08:27:00;13.45;;;6.28;;
24008;SDS011;12217;50.792;4.372;2022-09-20T08:29:26;10.52;;;5.60;;
24008;SDS011;12217;50.792;4.372;2022-09-20T08:31:52;13.55;;;5.97;;
24008;SDS011;12217;50.792;4.372;2022-09-20T08:34:19;15.27;;;8.55;;
24008;SDS011;12217;50.792;4.372;2022-09-20T08:36:45;12.23;;;7.05;;
24008;SDS011;12217;50.792;4.372;2022-09-20T08:39:11;18.98;;;12.10;;
24008;SDS011;12217;50.792;4.372;2022-09-20T08:41:43;14.35;;;5.97;;
24008;SDS011;12217;50.792;4.372;2022-09-20T08:46:41;12.02;;;5.97;;
24008;SDS011;12217;50.792;4.372;2022-09-20T08:49:13;11.82;;;5.18;;
24008;SDS011;12217;50.792;4.372;2022-09-20T08:51:47;7.13;;;5.03;;
24008;SDS011;12217;50.792;4.372;2022-09-20T08:54:14;9.85;;;5.57;;
24008;SDS011;12217;50.792;4.372;2022-09-20T08:56:41;15.57;;;5.82;;
24008;SDS011;12217;50.792;4.372;2022-09-20T08:59:11;10.63;;;5.05;;
24008;SDS011;12217;50.792;4.372;2022-09-20T09:01:40;17.38;;;12.55;;
24008;SDS011;12217;50.792;4.372;2022-09-20T09:06:37;13.73;;;5.20;;
24008;SDS011;12217;50.792;4.372;2022-09-20T09:09:03;7.00;;;4.82;;
24008;SDS011;12217;50.792;4.372;2022-09-20T09:11:29;9.50;;;5.07;;
24008;SDS011;12217;50.792;4.372;2022-09-20T09:13:57;11.23;;;4.90;;
24008;SDS011;12217;50.792;4.372;2022-09-20T09:16:27;7.90;;;4.72;;
24008;SDS011;12217;50.792;4.372;2022-09-20T09:18:55;9.68;;;4.43;;
24008;SDS011;12217;50.792;4.372;2022-09-20T09:21:25;9.20;;;4.82;;
24008;SDS011;12217;50.792;4.372;2022-09-20T09:24:03;5.78;;;3.97;;
24008;SDS011;12217;50.792;4.372;2022-09-20T09:26:37;6.55;;;4.25;;
24008;SDS011;12217;50.792;4.372;2022-09-20T09:29:15;6.75;;;4.20;;
24008;SDS011;12217;50.792;4.372;2022-09-20T09:31:43;7.70;;;3.85;;
24008;SDS011;12217;50.792;4.372;2022-09-20T09:34:26;8.30;;;4.70;;
24008;SDS011;12217;50.792;4.372;2022-09-20T09:36:54;7.07;;;3.90;;
24008;SDS011;12217;50.792;4.372;2022-09-20T09:39:25;11.20;;;6.65;;
24008;SDS011;12217;50.792;4.372;2022-09-20T09:41:55;9.00;;;4.45;;
24008;SDS011;12217;50.792;4.372;2022-09-20T09:46:51;9.07;;;3.28;;
24008;SDS011;12217;50.792;4.372;2022-09-20T09:49:22;7.05;;;2.67;;
24008;SDS011;12217;50.792;4.372;2022-09-20T09:52:08;7.55;;;2.60;;
24008;SDS011;12217;50.792;4.372;2022-09-20T09:54:49;6.68;;;2.72;;
24008;SDS011;12217;50.792;4.372;2022-09-20T10:05:18;7.78;;;2.40;;
24008;SDS011;12217;50.792;4.372;2022-09-20T10:11:01;9.18;;;4.30;;
24008;SDS011;12217;50.792;4.372;2022-09-20T10:13:49;6.28;;;2.10;;
24008;SDS011;12217;50.792;4.372;2022-09-20T10:41:23;7.05;;;2.00;;
24008;SDS011;12217;50.792;4.372;2022-09-20T10:49:24;6.00;;;1.70;;
24008;SDS011;12217;50.792;4.372;2022-09-20T11:00:53;8.70;;;1.80;;
24008;SDS011;12217;50.792;4.372;2022-09-20T11:09:00;14.27;;;7.30;;
24008;SDS011;12217;50.792;4.372;2022-09-20T11:11:28;22.95;;;9.27;;
24008;SDS011;12217;50.792;4.372;2022-09-20T11:19:00;12.45;;;4.15;;
24008;SDS011;12217;50.792;4.372;2022-09-20T11:21:48;6.10;;;1.92;;
24008;SDS011;12217;50.792;4.372;2022-09-20T11:32:48;7.05;;;2.08;;
24008;SDS011;12217;50.792;4.372;2022-09-20T11:35:23;4.82;;;2.10;;
24008;SDS011;12217;50.792;4.372;2022-09-20T11:40:47;9.13;;;3.00;;
24008;SDS011;12217;50.792;4.372;2022-09-20T11:43:21;5.15;;;2.60;;
24008;SDS011;12217;50.792;4.372;2022-09-20T11:45:54;10.10;;;3.47;;
24008;SDS011;12217;50.792;4.372;2022-09-20T11:48:25;7.70;;;3.65;;
24008;SDS011;12217;50.792;4.372;2022-09-20T11:56:19;4.07;;;2.80;;
24008;SDS011;12217;50.792;4.372;2022-09-20T11:58:53;6.03;;;3.50;;
24008;SDS011;12217;50.792;4.372;2022-09-20T12:01:37;9.02;;;2.85;;
24008;SDS011;12217;50.792;4.372;2022-09-20T12:04:23;8.73;;;3.80;;
24008;SDS011;12217;50.792;4.372;2022-09-20T12:09:44;9.05;;;2.67;;
24008;SDS011;12217;50.792;4.372;2022-09-20T12:15:07;6.75;;;2.88;;
24008;SDS011;12217;50.792;4.372;2022-09-20T12:28:47;19.08;;;13.10;;
24008;SDS011;12217;50.792;4.372;2022-09-20T12:36:35;7.65;;;3.78;;
24008;SDS011;12217;50.792;4.372;2022-09-20T12:47:32;7.47;;;2.80;;
24008;SDS011;12217;50.792;4.372;2022-09-20T12:49:59;6.50;;;2.80;;
24008;SDS011;12217;50.792;4.372;2022-09-20T12:52:53;4.28;;;2.33;;
24008;SDS011;12217;50.792;4.372;2022-09-20T12:55:26;7.00;;;2.20;;
24008;SDS011;12217;50.792;4.372;2022-09-20T13:00:43;7.90;;;2.85;;
24008;SDS011;12217;50.792;4.372;2022-09-20T13:03:24;7.20;;;2.60;;
24008;SDS011;12217;50.792;4.372;2022-09-20T13:11:40;3.95;;;2.10;;
24008;SDS011;12217;50.792;4.372;2022-09-20T13:14:29;7.35;;;2.30;;
24008;SDS011;12217;50.792;4.372;2022-09-20T13:17:00;6.72;;;2.33;;
24008;SDS011;12217;50.792;4.372;2022-09-20T13:19:40;81.35;;;64.82;;
24008;SDS011;12217;50.792;4.372;2022-09-20T13:22:17;120.20;;;104.72;;
24008;SDS011;12217;50.792;4.372;2022-09-20T13:24:51;45.60;;;39.17;;
24008;SDS011;12217;50.792;4.372;2022-09-20T13:29:48;12.13;;;5.80;;
24008;SDS011;12217;50.792;4.372;2022-09-20T13:35:15;6.70;;;4.63;;
24008;SDS011;12217;50.792;4.372;2022-09-20T13:37:54;6.68;;;4.50;;
24008;SDS011;12217;50.792;4.372;2022-09-20T13:43:04;6.57;;;2.80;;
24008;SDS011;12217;50.792;4.372;2022-09-20T13:45:31;7.95;;;5.00;;
24008;SDS011;12217;50.792;4.372;2022-09-20T13:47:57;4.82;;;2.03;;
24008;SDS011;12217;50.792;4.372;2022-09-20T13:52:51;10.65;;;5.93;;
24008;SDS011;12217;50.792;4.372;2022-09-20T13:58:25;5.70;;;2.05;;
24008;SDS011;12217;50.792;4.372;2022-09-20T14:00:54;4.53;;;1.70;;
24008;SDS011;12217;50.792;4.372;2022-09-20T14:03:22;6.90;;;1.35;;
24008;SDS011;12217;50.792;4.372;2022-09-20T14:05:51;5.30;;;1.20;;
24008;SDS011;12217;50.792;4.372;2022-09-20T14:08:32;3.05;;;1.50;;
24008;SDS011;12217;50.792;4.372;2022-09-20T14:11:19;5.10;;;2.15;;
24008;SDS011;12217;50.792;4.372;2022-09-20T14:14:20;4.50;;;1.40;;
24008;SDS011;12217;50.792;4.372;2022-09-20T14:16:40;3.95;;;1.33;;
24008;SDS011;12217;50.792;4.372;2022-09-20T14:19:12;4.63;;;1.35;;
24008;SDS011;12217;50.792;4.372;2022-09-20T14:21:41;2.90;;;1.00;;
24008;SDS011;12217;50.792;4.372;2022-09-20T14:26:40;4.90;;;1.40;;
24008;SDS011;12217;50.792;4.372;2022-09-20T14:31:53;9.05;;;1.30;;
24008;SDS011;12217;50.792;4.372;2022-09-20T14:34:20;4.82;;;1.65;;
24008;SDS011;12217;50.792;4.372;2022-09-20T14:36:47;6.53;;;1.20;;
24008;SDS011;12217;50.792;4.372;2022-09-20T14:39:14;3.05;;;1.15;;
24008;SDS011;12217;50.792;4.372;2022-09-20T14:41:43;6.97;;;1.30;;
24008;SDS011;12217;50.792;4.372;2022-09-20T14:44:20;7.97;;;1.70;;
24008;SDS011;12217;50.792;4.372;2022-09-20T14:46:50;7.00;;;1.75;;
24008;SDS011;12217;50.792;4.372;2022-09-20T14:49:36;4.40;;;1.65;;
24008;SDS011;12217;50.792;4.372;2022-09-20T14:57:52;9.35;;;1.88;;
24008;SDS011;12217;50.792;4.372;2022-09-20T15:00:26;3.97;;;1.80;;
24008;SDS011;12217;50.792;4.372;2022-09-20T15:02:53;7.75;;;1.73;;
24008;SDS011;12217;50.792;4.372;2022-09-20T15:07:50;6.25;;;1.95;;
24008;SDS011;12217;50.792;4.372;2022-09-20T15:10:20;5.28;;;2.03;;
24008;SDS011;12217;50.792;4.372;2022-09-20T15:12:46;5.65;;;1.80;;
24008;SDS011;12217;50.792;4.372;2022-09-20T15:15:12;5.88;;;2.05;;
24008;SDS011;12217;50.792;4.372;2022-09-20T15:17:41;2.53;;;1.52;;
24008;SDS011;12217;50.792;4.372;2022-09-20T15:20:17;4.78;;;1.67;;
24008;SDS011;12217;50.792;4.372;2022-09-20T15:22:48;4.20;;;1.83;;
24008;SDS011;12217;50.792;4.372;2022-09-20T15:25:15;3.08;;;1.80;;
24008;SDS011;12217;50.792;4.372;2022-09-20T15:27:44;4.13;;;1.80;;
24008;SDS011;12217;50.792;4.372;2022-09-20T15:30:11;4.25;;;1.20;;
24008;SDS011;12217;50.792;4.372;2022-09-20T15:32:38;3.88;;;1.27;;
24008;SDS011;12217;50.792;4.372;2022-09-20T15:35:05;5.95;;;1.58;;
24008;SDS011;12217;50.792;4.372;2022-09-20T15:37:31;3.20;;;1.20;;
24008;SDS011;12217;50.792;4.372;2022-09-20T15:39:56;3.35;;;1.20;;
24008;SDS011;12217;50.792;4.372;2022-09-20T15:42:22;3.58;;;1.05;;
24008;SDS011;12217;50.792;4.372;2022-09-20T15:44:48;6.78;;;1.35;;
24008;SDS011;12217;50.792;4.372;2022-09-20T15:47:16;3.47;;;1.23;;
24008;SDS011;12217;50.792;4.372;2022-09-20T15:49:42;2.28;;;1.05;;
24008;SDS011;12217;50.792;4.372;2022-09-20T15:52:10;2.13;;;1.20;;
24008;SDS011;12217;50.792;4.372;2022-09-20T15:54:37;5.78;;;1.10;;
24008;SDS011;12217;50.792;4.372;2022-09-20T15:57:03;3.35;;;1.30;;
24008;SDS011;12217;50.792;4.372;2022-09-20T15:59:29;3.42;;;1.30;;
24008;SDS011;12217;50.792;4.372;2022-09-20T16:01:57;4.18;;;1.30;;
24008;SDS011;12217;50.792;4.372;2022-09-20T16:04:23;5.45;;;1.40;;
24008;SDS011;12217;50.792;4.372;2022-09-20T16:06:50;5.07;;;1.25;;
24008;SDS011;12217;50.792;4.372;2022-09-20T16:09:16;3.47;;;1.30;;
24008;SDS011;12217;50.792;4.372;2022-09-20T16:11:42;3.13;;;1.40;;
24008;SDS011;12217;50.792;4.372;2022-09-20T16:14:08;5.90;;;1.30;;
24008;SDS011;12217;50.792;4.372;2022-09-20T16:16:34;5.68;;;1.30;;
24008;SDS011;12217;50.792;4.372;2022-09-20T16:18:59;4.07;;;1.40;;
24008;SDS011;12217;50.792;4.372;2022-09-20T16:21:56;3.80;;;1.33;;
24008;SDS011;12217;50.792;4.372;2022-09-20T16:24:23;2.72;;;1.10;;
24008;SDS011;12217;50.792;4.372;2022-09-20T16:26:52;5.50;;;1.30;;
24008;SDS011;12217;50.792;4.372;2022-09-20T16:29:18;3.33;;;1.05;;
24008;SDS011;12217;50.792;4.372;2022-09-20T16:31:49;4.68;;;1.30;;
24008;SDS011;12217;50.792;4.372;2022-09-20T16:34:16;2.70;;;1.40;;
24008;SDS011;12217;50.792;4.372;2022-09-20T16:36:49;5.20;;;1.27;;
24008;SDS011;12217;50.792;4.372;2022-09-20T16:39:17;4.15;;;1.40;;
24008;SDS011;12217;50.792;4.372;2022-09-20T16:41:44;2.88;;;1.40;;
24008;SDS011;12217;50.792;4.372;2022-09-20T16:44:12;3.42;;;1.55;;
24008;SDS011;12217;50.792;4.372;2022-09-20T16:46:38;3.53;;;1.55;;
24008;SDS011;12217;50.792;4.372;2022-09-20T16:49:07;3.42;;;1.50;;
24008;SDS011;12217;50.792;4.372;2022-09-20T16:51:36;6.68;;;1.40;;
24008;SDS011;12217;50.792;4.372;2022-09-20T16:54:03;3.72;;;1.40;;
24008;SDS011;12217;50.792;4.372;2022-09-20T16:56:32;5.95;;;1.98;;
24008;SDS011;12217;50.792;4.372;2022-09-20T16:58:59;5.35;;;1.40;;
24008;SDS011;12217;50.792;4.372;2022-09-20T17:01:26;4.72;;;1.77;;
24008;SDS011;12217;50.792;4.372;2022-09-20T17:03:53;6.18;;;1.75;;
24008;SDS011;12217;50.792;4.372;2022-09-20T17:06:18;4.90;;;1.60;;
24008;SDS011;12217;50.792;4.372;2022-09-20T17:08:45;5.70;;;1.77;;
24008;SDS011;12217;50.792;4.372;2022-09-20T17:11:13;5.38;;;1.55;;
24008;SDS011;12217;50.792;4.372;2022-09-20T17:13:41;4.28;;;1.50;;
24008;SDS011;12217;50.792;4.372;2022-09-20T17:16:09;5.47;;;1.63;;
24008;SDS011;12217;50.792;4.372;2022-09-20T17:18:36;5.60;;;1.55;;
24008;SDS011;12217;50.792;4.372;2022-09-20T17:21:08;3.08;;;1.52;;
24008;SDS011;12217;50.792;4.372;2022-09-20T17:23:38;5.03;;;1.98;;
24008;SDS011;12217;50.792;4.372;2022-09-20T17:26:12;4.82;;;2.08;;
24008;SDS011;12217;50.792;4.372;2022-09-20T17:28:40;4.07;;;1.90;;
24008;SDS011;12217;50.792;4.372;2022-09-20T17:31:08;6.25;;;2.25;;
24008;SDS011;12217;50.792;4.372;2022-09-20T17:33:39;3.37;;;1.70;;
24008;SDS011;12217;50.792;4.372;2022-09-20T17:36:05;8.65;;;2.15;;
24008;SDS011;12217;50.792;4.372;2022-09-20T17:38:34;6.38;;;2.67;;
24008;SDS011;12217;50.792;4.372;2022-09-20T17:41:04;9.73;;;2.70;;
24008;SDS011;12217;50.792;4.372;2022-09-20T17:43:35;6.72;;;3.53;;
24008;SDS011;12217;50.792;4.372;2022-09-20T17:48:37;10.43;;;5.85;;
24008;SDS011;12217;50.792;4.372;2022-09-20T17:51:13;8.95;;;6.07;;
24008;SDS011;12217;50.792;4.372;2022-09-20T17:53:40;11.90;;;6.13;;
24008;SDS011;12217;50.792;4.372;2022-09-20T17:56:06;10.13;;;6.43;;
24008;SDS011;12217;50.792;4.372;2022-09-20T17:58:35;7.75;;;5.50;;
24008;SDS011;12217;50.792;4.372;2022-09-20T18:01:09;8.55;;;5.75;;
24008;SDS011;12217;50.792;4.372;2022-09-20T18:03:38;8.82;;;5.57;;
24008;SDS011;12217;50.792;4.372;2022-09-20T18:06:28;8.63;;;5.65;;
24008;SDS011;12217;50.792;4.372;2022-09-20T18:08:55;10.82;;;5.03;;
24008;SDS011;12217;50.792;4.372;2022-09-20T18:11:25;7.55;;;5.85;;
24008;SDS011;12217;50.792;4.372;2022-09-20T18:14:02;12.52;;;7.32;;
24008;SDS011;12217;50.792;4.372;2022-09-20T18:16:29;12.50;;;8.38;;
24008;SDS011;12217;50.792;4.372;2022-09-20T18:18:55;11.13;;;7.00;;
24008;SDS011;12217;50.792;4.372;2022-09-20T18:21:22;9.82;;;6.60;;
24008;SDS011;12217;50.792;4.372;2022-09-20T18:23:48;11.32;;;7.22;;
24008;SDS011;12217;50.792;4.372;2022-09-20T18:26:19;10.68;;;7.22;;
24008;SDS011;12217;50.792;4.372;2022-09-20T18:28:50;10.57;;;6.47;;
24008;SDS011;12217;50.792;4.372;2022-09-20T18:31:38;9.55;;;6.47;;
24008;SDS011;12217;50.792;4.372;2022-09-20T18:34:11;12.93;;;7.43;;
24008;SDS011;12217;50.792;4.372;2022-09-20T18:36:51;9.80;;;7.03;;
24008;SDS011;12217;50.792;4.372;2022-09-20T18:39:19;14.38;;;6.53;;
24008;SDS011;12217;50.792;4.372;2022-09-20T18:41:48;11.32;;;7.72;;
24008;SDS011;12217;50.792;4.372;2022-09-20T18:44:15;13.63;;;8.15;;
24008;SDS011;12217;50.792;4.372;2022-09-20T18:46:42;12.48;;;8.07;;
24008;SDS011;12217;50.792;4.372;2022-09-20T18:49:09;12.90;;;7.55;;
24008;SDS011;12217;50.792;4.372;2022-09-20T18:51:36;11.02;;;7.97;;
24008;SDS011;12217;50.792;4.372;2022-09-20T18:54:02;11.00;;;7.60;;
24008;SDS011;12217;50.792;4.372;2022-09-20T18:56:29;12.90;;;7.80;;
24008;SDS011;12217;50.792;4.372;2022-09-20T19:01:30;12.10;;;7.20;;
24008;SDS011;12217;50.792;4.372;2022-09-20T19:07:10;12.27;;;7.78;;
24008;SDS011;12217;50.792;4.372;2022-09-20T19:20:09;17.15;;;10.05;;
24008;SDS011;12217;50.792;4.372;2022-09-20T19:25:49;14.40;;;9.55;;
24008;SDS011;12217;50.792;4.372;2022-09-20T19:28:30;12.43;;;9.10;;
24008;SDS011;12217;50.792;4.372;2022-09-20T19:30:56;14.50;;;9.55;;
24008;SDS011;12217;50.792;4.372;2022-09-20T19:33:22;14.23;;;9.70;;
24008;SDS011;12217;50.792;4.372;2022-09-20T19:35:48;16.77;;;9.65;;
24008;SDS011;12217;50.792;4.372;2022-09-20T19:48:47;11.23;;;8.98;;
24008;SDS011;12217;50.792;4.372;2022-09-20T19:51:24;19.45;;;10.35;;
24008;SDS011;12217;50.792;4.372;2022-09-20T19:53:50;12.82;;;9.48;;
24008;SDS011;12217;50.792;4.372;2022-09-20T19:56:24;15.75;;;10.63;;
24008;SDS011;12217;50.792;4.372;2022-09-20T19:58:52;16.48;;;11.68;;
24008;SDS011;12217;50.792;4.372;2022-09-20T20:01:20;15.85;;;11.80;;
24008;SDS011;12217;50.792;4.372;2022-09-20T20:03:48;17.23;;;12.27;;
24008;SDS011;12217;50.792;4.372;2022-09-20T20:22:56;16.58;;;11.38;;
24008;SDS011;12217;50.792;4.372;2022-09-20T20:25:40;22.38;;;16.75;;
24008;SDS011;12217;50.792;4.372;2022-09-20T20:28:14;27.30;;;15.65;;
24008;SDS011;12217;50.792;4.372;2022-09-20T20:30:40;22.83;;;16.63;;
24008;SDS011;12217;50.792;4.372;2022-09-20T20:33:05;19.58;;;14.75;;
24008;SDS011;12217;50.792;4.372;2022-09-20T20:35:31;19.42;;;13.00;;
24008;SDS011;12217;50.792;4.372;2022-09-20T20:37:57;20.50;;;11.70;;
24008;SDS011;12217;50.792;4.372;2022-09-20T20:40:23;23.85;;;16.95;;
24008;SDS011;12217;50.792;4.372;2022-09-20T20:42:54;22.42;;;16.35;;
24008;SDS011;12217;50.792;4.372;2022-09-20T20:45:23;24.35;;;15.82;;
24008;SDS011;12217;50.792;4.372;2022-09-20T20:47:54;20.13;;;15.55;;
24008;SDS011;12217;50.792;4.372;2022-09-20T20:50:20;19.77;;;15.30;;
24008;SDS011;12217;50.792;4.372;2022-09-20T20:52:50;21.83;;;14.93;;
24008;SDS011;12217;50.792;4.372;2022-09-20T20:55:17;19.60;;;14.75;;
24008;SDS011;12217;50.792;4.372;2022-09-20T20:57:42;19.38;;;13.32;;
24008;SDS011;12217;50.792;4.372;2022-09-20T21:00:08;17.23;;;12.70;;
24008;SDS011;12217;50.792;4.372;2022-09-20T21:02:34;16.17;;;11.77;;
24008;SDS011;12217;50.792;4.372;2022-09-20T21:04:59;19.17;;;12.15;;
24008;SDS011;12217;50.792;4.372;2022-09-20T21:07:25;17.92;;;11.48;;
24008;SDS011;12217;50.792;4.372;2022-09-20T21:09:51;18.55;;;11.18;;
24008;SDS011;12217;50.792;4.372;2022-09-20T21:12:16;15.95;;;11.20;;
24008;SDS011;12217;50.792;4.372;2022-09-20T21:14:42;18.25;;;10.77;;
24008;SDS011;12217;50.792;4.372;2022-09-20T21:17:09;14.27;;;10.15;;
24008;SDS011;12217;50.792;4.372;2022-09-20T21:19:35;20.90;;;11.20;;
24008;SDS011;12217;50.792;4.372;2022-09-20T21:22:01;12.57;;;8.32;;
24008;SDS011;12217;50.792;4.372;2022-09-20T21:24:26;13.18;;;7.72;;
24008;SDS011;12217;50.792;4.372;2022-09-20T21:26:52;13.48;;;7.80;;
24008;SDS011;12217;50.792;4.372;2022-09-20T21:29:17;12.93;;;7.90;;
24008;SDS011;12217;50.792;4.372;2022-09-20T21:31:44;12.93;;;7.97;;